createdAt,value
2019-03-10T00:04:35.967Z,81.70
2019-03-10T00:09:42.491Z,82.60
2019-03-10T00:14:49.119Z,83.30
2019-03-10T00:19:55.715Z,83.40
2019-03-10T00:25:03.275Z,83.80
2019-03-10T00:30:10.305Z,84.60
2019-03-10T00:35:16.927Z,84.70
2019-03-10T00:41:12.731Z,84.40
2019-03-10T00:47:32.649Z,85.30
2019-03-10T00:52:45.092Z,84.10
2019-03-10T00:57:51.694Z,83.80
2019-03-10T01:02:58.339Z,83.10
2019-03-10T01:08:04.988Z,83.20
2019-03-10T01:13:11.641Z,82.50
2019-03-10T01:18:20.852Z,82.50
2019-03-10T01:23:27.546Z,81.70
2019-03-10T01:28:34.152Z,80.30
2019-03-10T01:35:01.766Z,81.90
2019-03-10T01:40:08.769Z,82.20
2019-03-10T01:45:15.665Z,81.70
2019-03-10T01:50:22.272Z,82.30
2019-03-10T01:55:28.810Z,83.30
2019-03-10T02:00:35.449Z,82.80
2019-03-10T02:05:42.062Z,83.30
2019-03-10T02:10:48.738Z,83.30
2019-03-10T02:15:55.269Z,83.70
2019-03-10T02:21:01.859Z,83.80
2019-03-10T02:26:08.461Z,84.10
2019-03-10T02:31:15.064Z,85.40
2019-03-10T02:36:21.600Z,84.60
2019-03-10T02:41:28.225Z,84.80
2019-03-10T02:46:34.850Z,84.90
2019-03-10T02:51:41.371Z,85.00
2019-03-10T02:56:47.991Z,85.80
2019-03-10T03:01:54.645Z,85.10
2019-03-10T03:07:01.272Z,84.70
2019-03-10T03:12:07.874Z,84.60
2019-03-10T03:17:14.669Z,84.90
2019-03-10T03:22:21.259Z,84.50
2019-03-10T03:27:27.862Z,84.60
2019-03-10T03:32:34.314Z,84.30
2019-03-10T03:37:40.861Z,84.10
2019-03-10T03:42:47.408Z,84.60
2019-03-10T03:47:53.919Z,84.70
2019-03-10T03:53:00.536Z,84.90
2019-03-10T03:58:07.145Z,84.80
2019-03-10T04:03:13.788Z,84.50
2019-03-10T04:08:20.271Z,84.30
2019-03-10T04:13:26.749Z,84.40
2019-03-10T04:18:33.360Z,84.30
2019-03-10T04:23:39.824Z,84.40
2019-03-10T04:28:46.445Z,84.40
2019-03-10T04:33:52.989Z,84.60
2019-03-10T04:38:59.443Z,84.40
2019-03-10T04:44:06.062Z,84.20
2019-03-10T04:49:12.805Z,83.90
2019-03-10T04:54:31.801Z,83.80
2019-03-10T04:59:38.277Z,84.40
2019-03-10T05:04:44.923Z,84.20
2019-03-10T05:09:51.540Z,84.20
2019-03-10T05:14:58.006Z,84.40
2019-03-10T05:20:04.946Z,84.70
2019-03-10T05:25:13.243Z,85.10
2019-03-10T05:30:19.858Z,84.90
2019-03-10T05:35:26.339Z,85.90
2019-03-10T05:40:32.789Z,85.90
2019-03-10T05:45:39.405Z,87.00
2019-03-10T05:50:45.949Z,86.90
2019-03-10T05:55:52.397Z,88.00
2019-03-10T06:00:59.315Z,88.30
2019-03-10T06:06:05.938Z,88.50
2019-03-10T06:11:12.465Z,88.80
2019-03-10T06:16:19.085Z,88.70
2019-03-10T06:21:25.587Z,88.50
2019-03-10T06:26:32.044Z,88.30
2019-03-10T06:31:38.498Z,88.30
2019-03-10T06:36:44.952Z,88.00
2019-03-10T06:41:51.487Z,88.50
2019-03-10T06:46:58.040Z,87.60
2019-03-10T06:52:04.572Z,87.50
2019-03-10T06:57:11.238Z,87.60
2019-03-10T07:02:17.782Z,87.20
2019-03-10T07:07:24.325Z,87.10
2019-03-10T07:12:30.795Z,86.50
2019-03-10T07:17:37.430Z,86.30
2019-03-10T07:22:44.256Z,86.00
2019-03-10T07:28:14.085Z,85.60
2019-03-10T07:33:43.305Z,85.70
2019-03-10T07:39:26.457Z,87.30
2019-03-10T07:44:45.832Z,90.20
2019-03-10T07:50:00.809Z,88.80
2019-03-10T07:55:32.730Z,89.70
2019-03-10T08:00:57.015Z,92.40
2019-03-10T08:06:12.788Z,92.70
2019-03-10T08:11:38.059Z,93.60
2019-03-10T08:17:03.614Z,93.60
2019-03-10T08:22:28.374Z,93.40
2019-03-10T08:28:01.622Z,93.10
2019-03-10T08:33:36.338Z,93.10
2019-03-10T08:39:16.889Z,93.40
2019-03-10T08:45:00.858Z,92.90
2019-03-10T08:50:31.544Z,93.80
2019-03-10T08:55:47.916Z,96.30
2019-03-10T09:01:23.570Z,95.40
2019-03-10T09:07:04.118Z,96.00
2019-03-10T09:12:16.338Z,96.30
2019-03-10T09:17:45.160Z,97.60
2019-03-10T09:23:09.993Z,97.30
2019-03-10T09:28:29.458Z,97.80
2019-03-10T09:34:09.958Z,99.10
2019-03-10T09:39:36.156Z,98.80
2019-03-10T09:45:04.548Z,99.20
2019-03-10T09:50:23.805Z,98.40
2019-03-10T09:55:38.154Z,97.90
2019-03-10T10:01:02.353Z,95.60
2019-03-10T10:06:18.058Z,95.20
2019-03-10T10:11:32.839Z,95.80
2019-03-10T10:16:51.910Z,96.00
2019-03-10T10:22:26.424Z,94.10
2019-03-10T10:27:54.776Z,94.40
2019-03-10T10:33:20.200Z,94.60
2019-03-10T10:38:37.956Z,94.30
2019-03-10T10:43:55.356Z,95.70
2019-03-10T10:49:23.657Z,95.80
2019-03-10T10:55:01.209Z,95.50
2019-03-10T11:00:20.740Z,96.20
2019-03-10T11:05:46.272Z,96.00
2019-03-10T11:11:17.839Z,95.80
2019-03-10T11:16:46.196Z,96.40
2019-03-10T11:22:24.458Z,96.70
2019-03-10T11:27:48.032Z,95.70
2019-03-10T11:33:06.522Z,95.60
2019-03-10T11:38:37.041Z,94.70
2019-03-10T11:44:01.972Z,95.80
2019-03-10T11:49:39.917Z,94.00
2019-03-10T11:55:05.274Z,96.90
2019-03-10T12:00:32.250Z,94.50
2019-03-10T12:06:00.888Z,95.90
2019-03-10T12:11:07.506Z,95.10
2019-03-10T12:16:14.209Z,99.00
2019-03-10T12:21:21.017Z,97.80
2019-03-10T12:26:27.535Z,99.90
2019-03-10T12:31:34.338Z,99.90
2019-03-10T12:36:40.974Z,98.40
2019-03-10T12:41:57.785Z,96.40
2019-03-10T12:46:55.745Z,96.30
2019-03-10T12:52:02.266Z,96.90
2019-03-10T12:57:08.780Z,97.00
2019-03-10T13:02:15.490Z,97.70
2019-03-10T13:07:22.092Z,96.30
2019-03-10T13:12:28.636Z,96.30
2019-03-10T13:17:35.019Z,91.70
2019-03-10T13:22:41.622Z,88.90
2019-03-10T13:27:48.140Z,87.30
2019-03-10T13:32:54.607Z,87.00
2019-03-10T13:38:02.194Z,87.30
2019-03-10T13:43:09.882Z,86.80
2019-03-10T13:48:16.444Z,86.60
2019-03-10T13:53:22.983Z,86.80
2019-03-10T13:58:30.580Z,87.40
2019-03-10T14:03:37.130Z,87.50
2019-03-10T14:08:43.827Z,87.10
2019-03-10T14:13:50.224Z,88.70
2019-03-10T14:18:56.893Z,89.80
2019-03-10T14:24:03.516Z,87.70
2019-03-10T14:29:10.123Z,88.80
2019-03-10T14:34:16.674Z,94.30
2019-03-10T14:39:23.318Z,95.90
2019-03-10T14:44:29.897Z,96.80
2019-03-10T14:49:36.344Z,96.80
2019-03-10T14:54:42.964Z,97.70
2019-03-10T14:59:49.658Z,99.90
2019-03-10T15:04:56.309Z,99.90
2019-03-10T15:10:13.120Z,99.90
2019-03-10T15:15:22.575Z,99.90
2019-03-10T15:20:28.188Z,99.20
2019-03-10T15:25:34.716Z,99.70
2019-03-10T15:30:41.356Z,99.80
2019-03-10T15:35:47.907Z,95.40
2019-03-10T15:40:54.517Z,94.90
2019-03-10T15:46:01.037Z,94.10
2019-03-10T15:51:08.114Z,95.40
2019-03-10T15:56:14.487Z,96.30
2019-03-10T16:01:21.175Z,94.70
2019-03-10T16:06:27.779Z,95.50
2019-03-10T16:11:34.766Z,96.00
2019-03-10T16:16:41.553Z,97.20
2019-03-10T16:21:48.190Z,92.20
2019-03-10T16:26:54.793Z,86.10
2019-03-10T16:32:01.392Z,88.00
2019-03-10T16:37:08.001Z,90.10
2019-03-10T16:42:14.638Z,88.70
2019-03-10T16:47:21.207Z,89.20
2019-03-10T16:52:27.817Z,86.40
2019-03-10T16:57:34.351Z,86.30
2019-03-10T17:02:43.274Z,84.80
2019-03-10T17:07:49.706Z,82.60
2019-03-10T17:12:56.402Z,82.70
2019-03-10T17:18:02.947Z,83.00
2019-03-10T17:23:09.555Z,81.00
2019-03-10T17:28:16.167Z,79.50
2019-03-10T17:33:22.802Z,76.20
2019-03-10T17:38:29.248Z,75.50
2019-03-10T17:43:35.794Z,72.60
2019-03-10T17:48:42.401Z,72.40
2019-03-10T17:53:48.935Z,66.50
2019-03-10T17:58:55.623Z,65.30
2019-03-10T18:04:02.123Z,68.50
2019-03-10T18:52:17.171Z,67.50
2019-03-10T18:57:23.846Z,67.10
2019-03-10T19:02:30.535Z,66.10
2019-03-10T19:07:36.991Z,65.60
2019-03-10T19:12:43.610Z,66.00
2019-03-10T19:17:50.344Z,67.30
2019-03-10T19:22:56.953Z,68.40
2019-03-10T19:28:03.550Z,66.60
2019-03-10T19:33:10.278Z,66.70
2019-03-10T19:38:16.822Z,64.70
2019-03-10T19:43:23.436Z,65.60
2019-03-10T19:48:29.982Z,64.10
2019-03-10T19:53:36.631Z,63.70
2019-03-10T19:58:43.182Z,65.20
2019-03-10T20:03:50.860Z,62.80
2019-03-10T20:08:57.243Z,64.40
2019-03-10T20:14:03.812Z,61.70
2019-03-10T20:44:32.499Z,72.10
2019-03-10T20:49:39.134Z,79.60
2019-03-10T20:54:45.718Z,82.60
2019-03-10T21:00:00.287Z,83.30
2019-03-10T21:05:00.815Z,84.50
2019-03-10T21:10:09.488Z,84.40
2019-03-10T21:15:17.729Z,85.20
2019-03-10T21:20:24.554Z,84.60
2019-03-10T21:25:31.227Z,84.20
2019-03-10T21:30:37.777Z,86.40
2019-03-10T21:35:44.318Z,87.80
2019-03-10T21:40:50.809Z,88.00
2019-03-10T21:45:57.351Z,89.30
2019-03-10T21:51:03.827Z,88.90
2019-03-10T21:56:10.309Z,88.50
2019-03-10T22:01:16.931Z,88.20
2019-03-10T22:06:23.592Z,88.60
2019-03-10T22:11:30.211Z,88.00
2019-03-10T22:16:36.742Z,87.80
2019-03-10T22:21:43.365Z,88.20
2019-03-10T22:26:50.083Z,86.40
2019-03-10T22:31:56.633Z,86.70
2019-03-10T22:37:03.118Z,88.20
2019-03-10T22:42:09.592Z,88.00
2019-03-10T22:47:16.232Z,87.40
2019-03-10T22:52:22.851Z,88.00
2019-03-10T22:57:29.250Z,87.70
2019-03-10T23:02:35.735Z,87.00
2019-03-10T23:07:42.386Z,87.30
2019-03-10T23:12:49.010Z,87.20
2019-03-10T23:17:55.483Z,87.80
2019-03-10T23:23:02.021Z,87.80
2019-03-10T23:28:08.743Z,87.30
2019-03-10T23:33:15.360Z,87.70
2019-03-10T23:38:21.917Z,88.30
2019-03-10T23:43:28.468Z,89.40
2019-03-10T23:48:35.035Z,89.60
2019-03-10T23:53:41.671Z,90.00
2019-03-10T23:58:48.301Z,90.30
